Time;durP1;ratioP1;P1;durP2;ratioP2;P2;SDS_P1;SDS_P2;PMS_P1;PMS_P2;Temp;Humidity;BMP_temperature;BMP_pressure;BME280_temperature;BME280_humidity;BME280_pressure;Samples;Min_cycle;Max_cycle;Signal;HPM_P1;HPM_P2
2024/02/13 00:00:48;;;;;;;3.80;1.95;;;9.20;99.90;;;;;;5033204;28;20438;-86
2024/02/13 00:03:14;;;;;;;5.95;2.10;;;9.30;99.90;;;;;;5034879;28;20026;-87
2024/02/13 00:05:40;;;;;;;4.03;2.00;;;9.30;99.90;;;;;;5024725;28;20039;-86
2024/02/13 00:08:06;;;;;;;4.53;1.73;;;9.30;99.90;;;;;;5030418;28;20024;-87
2024/02/13 00:10:33;;;;;;;6.40;2.20;;;9.20;99.90;;;;;;5032251;28;20033;-87
2024/02/13 00:12:58;;;;;;;2.67;1.98;;;9.20;99.90;;;;;;5032089;28;20021;-85
2024/02/13 00:15:25;;;;;;;4.18;2.15;;;9.20;99.90;;;;;;5028878;28;20163;-86
2024/02/13 00:17:51;;;;;;;7.40;2.20;;;9.20;99.90;;;;;;5037166;28;20020;-87
2024/02/13 00:20:17;;;;;;;5.28;2.42;;;9.20;99.90;;;;;;5027987;28;20037;-86
2024/02/13 00:22:45;;;;;;;3.88;2.10;;;9.20;99.90;;;;;;5029395;28;20117;-87
2024/02/13 00:25:12;;;;;;;5.45;2.00;;;9.20;99.90;;;;;;5017421;28;20487;-86
2024/02/13 00:27:38;;;;;;;6.97;2.22;;;9.20;99.90;;;;;;5026658;28;20476;-87
2024/02/13 00:30:04;;;;;;;7.53;2.25;;;9.30;99.90;;;;;;5033342;28;20052;-86
2024/02/13 00:32:31;;;;;;;4.68;1.98;;;9.30;99.90;;;;;;5041830;28;20022;-87
2024/02/13 00:34:57;;;;;;;8.48;2.10;;;9.20;99.90;;;;;;5028718;28;20025;-87
2024/02/13 00:37:23;;;;;;;3.35;2.00;;;9.20;99.90;;;;;;5034577;28;20046;-85
2024/02/13 00:39:50;;;;;;;5.03;1.90;;;9.20;99.90;;;;;;5033421;28;20049;-86
2024/02/13 00:42:15;;;;;;;3.42;1.95;;;9.20;99.90;;;;;;5023633;28;20025;-88
2024/02/13 00:44:42;;;;;;;4.22;1.63;;;9.20;99.90;;;;;;5031335;28;20543;-87
2024/02/13 00:47:08;;;;;;;6.28;2.30;;;9.20;99.90;;;;;;5040972;28;20025;-86
2024/02/13 00:49:34;;;;;;;3.22;1.98;;;9.20;99.90;;;;;;5028690;28;20026;-88
2024/02/13 00:52:01;;;;;;;10.20;1.95;;;9.20;99.90;;;;;;5025897;28;20025;-86
2024/02/13 00:54:27;;;;;;;5.40;2.03;;;9.20;99.90;;;;;;5025188;28;20108;-86
2024/02/13 00:56:55;;;;;;;6.47;2.00;;;9.20;99.90;;;;;;5044648;28;20471;-87
2024/02/13 00:59:21;;;;;;;4.90;2.05;;;9.20;99.90;;;;;;5027785;28;20033;-86
2024/02/13 01:01:46;;;;;;;2.08;1.63;;;9.20;99.90;;;;;;5038539;28;20040;-87
2024/02/13 01:04:12;;;;;;;2.97;2.03;;;9.20;99.90;;;;;;5024485;28;20029;-86
2024/02/13 01:06:38;;;;;;;6.07;1.75;;;9.20;99.90;;;;;;5022340;28;20040;-86
2024/02/13 01:09:05;;;;;;;5.78;1.95;;;9.20;99.90;;;;;;5023705;28;20029;-86
2024/02/13 01:11:31;;;;;;;5.00;1.42;;;9.20;99.90;;;;;;5026289;28;20431;-86
2024/02/13 01:13:57;;;;;;;4.88;1.63;;;9.20;99.90;;;;;;5031526;28;20017;-86
2024/02/13 01:16:23;;;;;;;6.32;1.75;;;9.20;99.90;;;;;;5032588;28;20087;-86
2024/02/13 01:18:51;;;;;;;2.90;1.67;;;9.20;99.90;;;;;;5032666;28;20101;-87
2024/02/13 01:21:19;;;;;;;7.32;2.15;;;9.20;99.90;;;;;;5028819;28;20029;-86
2024/02/13 01:23:46;;;;;;;5.00;1.95;;;9.20;99.90;;;;;;5024121;28;20125;-86
2024/02/13 01:26:11;;;;;;;6.15;2.17;;;9.20;99.90;;;;;;5025945;28;20056;-86
2024/02/13 01:28:37;;;;;;;2.70;1.65;;;9.20;99.90;;;;;;5031880;28;20713;-86
2024/02/13 01:31:02;;;;;;;3.63;1.75;;;9.20;99.90;;;;;;5027578;28;20392;-87
2024/02/13 01:33:29;;;;;;;6.82;2.10;;;9.20;99.90;;;;;;5027962;28;20503;-85
2024/02/13 01:35:55;;;;;;;1.88;1.60;;;9.20;99.90;;;;;;5030934;28;20017;-87
2024/02/13 01:38:21;;;;;;;5.82;1.80;;;9.20;99.90;;;;;;5025185;28;20013;-85
2024/02/13 01:40:47;;;;;;;5.22;1.70;;;9.20;99.90;;;;;;5031485;28;20116;-86
2024/02/13 01:43:14;;;;;;;7.13;2.25;;;9.20;99.90;;;;;;5032738;28;20510;-85
2024/02/13 01:45:39;;;;;;;7.80;1.90;;;9.20;99.90;;;;;;5028123;28;20028;-87
2024/02/13 01:48:06;;;;;;;3.47;1.50;;;9.20;99.90;;;;;;5033778;28;20013;-87
2024/02/13 01:50:36;;;;;;;2.80;1.58;;;9.20;99.90;;;;;;5018043;28;20396;-86
2024/02/13 01:53:02;;;;;;;1.60;1.30;;;9.20;99.90;;;;;;5028187;28;20494;-87
2024/02/13 01:55:29;;;;;;;4.03;1.58;;;9.20;99.90;;;;;;5028134;28;20025;-86
2024/02/13 01:57:57;;;;;;;3.45;1.60;;;9.20;99.90;;;;;;5029788;28;20017;-87
2024/02/13 02:00:24;;;;;;;3.80;1.48;;;9.20;99.90;;;;;;5030968;28;20073;-87
2024/02/13 02:02:50;;;;;;;3.33;1.67;;;9.20;99.90;;;;;;5023794;28;20024;-86
2024/02/13 02:05:16;;;;;;;5.78;1.52;;;9.20;99.90;;;;;;5020644;28;20034;-87
2024/02/13 02:07:42;;;;;;;2.08;1.30;;;9.20;99.90;;;;;;5028857;28;20026;-86
2024/02/13 02:10:08;;;;;;;2.38;1.42;;;9.20;99.90;;;;;;5022606;28;20025;-86
2024/02/13 02:12:38;;;;;;;8.13;1.60;;;9.20;99.90;;;;;;5030888;28;20037;-87
2024/02/13 02:15:04;;;;;;;1.77;1.30;;;9.20;99.90;;;;;;5033783;28;20031;-87
2024/02/13 02:17:30;;;;;;;5.75;1.70;;;9.10;99.90;;;;;;5029341;28;20087;-86
2024/02/13 02:19:56;;;;;;;1.80;1.25;;;9.10;99.90;;;;;;5023555;28;20361;-87
2024/02/13 02:22:22;;;;;;;2.72;1.38;;;9.10;99.90;;;;;;5023583;28;20056;-87
2024/02/13 02:24:48;;;;;;;4.95;1.60;;;9.20;99.90;;;;;;5028225;28;20547;-87
2024/02/13 02:27:14;;;;;;;5.65;1.50;;;9.20;99.90;;;;;;5040451;28;20068;-88
2024/02/13 02:29:40;;;;;;;6.95;1.58;;;9.20;99.90;;;;;;5026049;28;20021;-87
2024/02/13 02:32:08;;;;;;;2.50;1.10;;;9.10;99.90;;;;;;5030623;28;20014;-86
2024/02/13 02:34:34;;;;;;;6.90;1.38;;;9.10;99.90;;;;;;5026425;28;20033;-87
2024/02/13 02:36:59;;;;;;;2.47;1.30;;;9.10;99.90;;;;;;5026115;28;20441;-87
2024/02/13 02:39:25;;;;;;;1.70;1.05;;;9.20;99.90;;;;;;5018981;28;20034;-85
2024/02/13 02:41:51;;;;;;;1.65;1.20;;;9.20;99.90;;;;;;5034443;28;20079;-87
2024/02/13 02:44:18;;;;;;;5.53;1.27;;;9.20;99.90;;;;;;5022378;28;20030;-87
2024/02/13 02:46:44;;;;;;;4.88;1.20;;;9.20;99.90;;;;;;5028719;28;20080;-87
2024/02/13 02:49:10;;;;;;;7.35;1.55;;;9.20;99.90;;;;;;5028673;28;20453;-86
2024/02/13 02:51:36;;;;;;;3.22;1.08;;;9.20;99.90;;;;;;5027523;28;20026;-87
2024/02/13 02:54:01;;;;;;;3.90;1.30;;;9.20;99.90;;;;;;5031179;28;20403;-86
2024/02/13 02:56:27;;;;;;;2.65;1.70;;;9.20;99.90;;;;;;5023478;28;20022;-87
2024/02/13 02:58:55;;;;;;;3.03;1.15;;;9.20;99.90;;;;;;5032575;28;20387;-87
2024/02/13 03:01:22;;;;;;;2.15;1.33;;;9.20;99.90;;;;;;5028560;28;20021;-86
2024/02/13 03:03:50;;;;;;;1.52;1.05;;;9.20;99.90;;;;;;5033546;28;20487;-86
2024/02/13 03:06:16;;;;;;;4.50;1.17;;;9.20;99.90;;;;;;5026002;28;20025;-86
2024/02/13 03:08:42;;;;;;;3.95;1.50;;;9.20;99.90;;;;;;5019031;28;20523;-86
2024/02/13 03:11:08;;;;;;;2.25;1.30;;;9.20;99.90;;;;;;5027980;28;20029;-85
2024/02/13 03:13:34;;;;;;;2.83;1.17;;;9.20;99.90;;;;;;5034290;28;20025;-87
2024/02/13 03:16:00;;;;;;;1.40;1.00;;;9.20;99.90;;;;;;5030719;28;20030;-87
2024/02/13 03:18:27;;;;;;;7.18;1.33;;;9.20;99.90;;;;;;5024413;28;20022;-87
2024/02/13 03:20:52;;;;;;;3.67;1.05;;;9.20;99.90;;;;;;5037746;28;20091;-87
2024/02/13 03:23:18;;;;;;;1.40;1.17;;;9.20;99.90;;;;;;5042273;28;20017;-86
2024/02/13 03:25:43;;;;;;;6.38;1.10;;;9.20;99.90;;;;;;5033435;28;20029;-87
2024/02/13 03:28:09;;;;;;;5.03;1.13;;;9.20;99.90;;;;;;5040405;28;20102;-86
2024/02/13 03:30:34;;;;;;;1.38;1.10;;;9.20;99.90;;;;;;5027830;28;20080;-86
2024/02/13 03:33:00;;;;;;;2.00;1.20;;;9.20;99.90;;;;;;5030283;28;20079;-86
2024/02/13 03:35:26;;;;;;;3.70;1.00;;;9.20;99.90;;;;;;5025931;28;20021;-87
2024/02/13 03:37:52;;;;;;;2.72;1.13;;;9.20;99.90;;;;;;5031289;28;20502;-86
2024/02/13 03:40:17;;;;;;;2.42;1.30;;;9.20;99.90;;;;;;5028593;28;20036;-87
2024/02/13 03:42:44;;;;;;;5.97;1.33;;;9.20;99.90;;;;;;5022523;28;20056;-86
2024/02/13 03:45:10;;;;;;;1.30;0.93;;;9.20;99.90;;;;;;5018615;28;20032;-87
2024/02/13 03:47:36;;;;;;;4.82;1.10;;;9.20;99.90;;;;;;5027538;28;20116;-87
2024/02/13 03:50:02;;;;;;;2.53;1.20;;;9.20;99.90;;;;;;5027379;28;20025;-86
2024/02/13 03:52:28;;;;;;;2.05;0.98;;;9.20;99.90;;;;;;5026858;28;20018;-87
2024/02/13 03:54:54;;;;;;;2.90;0.90;;;9.20;99.90;;;;;;5023958;28;20025;-87
2024/02/13 03:57:19;;;;;;;1.55;1.15;;;9.20;99.90;;;;;;5033791;28;20025;-86
2024/02/13 03:59:45;;;;;;;2.90;1.30;;;9.20;99.90;;;;;;5030493;28;20021;-87
2024/02/13 04:02:11;;;;;;;4.95;1.05;;;9.20;99.90;;;;;;5033708;28;20084;-87
2024/02/13 04:04:36;;;;;;;1.85;1.10;;;9.20;99.90;;;;;;5029064;28;20674;-87
2024/02/13 04:07:04;;;;;;;2.70;1.05;;;9.20;99.90;;;;;;5027378;28;20053;-87
2024/02/13 04:09:30;;;;;;;3.63;0.95;;;9.20;99.90;;;;;;5031954;28;20392;-86
2024/02/13 04:11:56;;;;;;;2.45;1.20;;;9.10;99.90;;;;;;5027759;28;20049;-86
2024/02/13 04:14:23;;;;;;;7.00;1.38;;;9.20;99.90;;;;;;5035819;28;20068;-86
2024/02/13 04:16:49;;;;;;;1.25;0.90;;;9.20;99.90;;;;;;5028801;28;20022;-86
2024/02/13 04:19:15;;;;;;;2.67;0.88;;;9.10;99.90;;;;;;5034494;28;20032;-87
2024/02/13 04:21:40;;;;;;;4.50;1.20;;;9.20;99.90;;;;;;5030668;28;20112;-87
2024/02/13 04:24:09;;;;;;;2.13;1.25;;;9.20;99.90;;;;;;5033304;28;20029;-87
2024/02/13 04:26:39;;;;;;;1.13;0.98;;;9.20;99.90;;;;;;5029149;28;20507;-87
2024/02/13 04:29:04;;;;;;;1.40;0.98;;;9.20;99.90;;;;;;5030328;28;20079;-87
2024/02/13 04:31:30;;;;;;;6.00;1.30;;;9.20;99.90;;;;;;5031887;28;20108;-85
2024/02/13 04:33:55;;;;;;;2.97;0.98;;;9.10;99.90;;;;;;5023611;28;20021;-87
2024/02/13 04:36:21;;;;;;;2.88;1.20;;;9.20;99.90;;;;;;5034589;28;20040;-87
2024/02/13 04:38:47;;;;;;;3.60;1.20;;;9.10;99.90;;;;;;5029564;28;20026;-86
2024/02/13 04:41:13;;;;;;;5.07;1.30;;;9.10;99.90;;;;;;5032884;28;20112;-86
2024/02/13 04:43:40;;;;;;;1.50;0.85;;;9.10;99.90;;;;;;5023236;28;20076;-85
2024/02/13 04:46:06;;;;;;;5.00;1.15;;;9.10;99.90;;;;;;5030539;28;20075;-86
2024/02/13 04:48:31;;;;;;;4.95;1.17;;;9.10;99.90;;;;;;5022746;28;20435;-86
2024/02/13 04:50:57;;;;;;;2.28;0.88;;;9.10;99.90;;;;;;5028934;28;20052;-87
2024/02/13 04:53:22;;;;;;;6.45;1.30;;;9.10;99.90;;;;;;5036136;28;20612;-87
2024/02/13 04:55:48;;;;;;;3.63;1.20;;;9.10;99.90;;;;;;5025268;28;20076;-87
2024/02/13 04:58:20;;;;;;;1.73;1.10;;;9.10;99.90;;;;;;5033125;28;20029;-86
2024/02/13 05:01:01;;;;;;;4.10;1.30;;;9.10;99.90;;;;;;5027534;28;20045;-86
2024/02/13 05:03:39;;;;;;;4.43;1.33;;;9.10;99.90;;;;;;5032386;28;20029;-86
2024/02/13 05:08:55;;;;;;;2.83;0.95;;;9.10;99.90;;;;;;5026401;28;20557;-86
2024/02/13 05:11:22;;;;;;;1.37;1.13;;;9.10;99.90;;;;;;5031271;28;20025;-86
2024/02/13 05:13:48;;;;;;;5.82;1.20;;;9.10;99.90;;;;;;5029681;28;20075;-86
2024/02/13 05:16:13;;;;;;;3.78;1.17;;;9.10;99.90;;;;;;5027240;28;20021;-87
2024/02/13 05:18:39;;;;;;;0.50;0.50;;;9.10;99.90;;;;;;5023586;28;20025;-86
2024/02/13 05:21:05;;;;;;;3.45;1.08;;;9.10;99.90;;;;;;5028400;28;20029;-86
2024/02/13 05:23:31;;;;;;;2.60;1.27;;;9.10;99.90;;;;;;5027362;28;20025;-86
2024/02/13 05:25:57;;;;;;;1.90;0.98;;;9.10;99.90;;;;;;5028638;28;20025;-85
2024/02/13 05:28:23;;;;;;;4.68;1.48;;;9.10;99.90;;;;;;5030629;28;20021;-86
2024/02/13 05:30:49;;;;;;;8.07;1.48;;;9.10;99.90;;;;;;5024203;28;20025;-87
2024/02/13 05:33:14;;;;;;;1.67;1.10;;;9.10;99.90;;;;;;5045618;28;20056;-87
2024/02/13 05:35:41;;;;;;;2.92;1.17;;;9.10;99.90;;;;;;5024430;28;20569;-85
2024/02/13 05:38:07;;;;;;;1.90;1.08;;;9.10;99.90;;;;;;5028746;28;20025;-87
2024/02/13 05:40:32;;;;;;;5.32;1.55;;;9.10;99.90;;;;;;5030442;28;20407;-86
2024/02/13 05:42:59;;;;;;;0.98;0.93;;;9.10;99.90;;;;;;5030233;28;20053;-87
2024/02/13 05:45:25;;;;;;;7.88;1.70;;;9.10;99.90;;;;;;5032491;28;20399;-86
2024/02/13 05:47:51;;;;;;;5.30;1.30;;;9.10;99.90;;;;;;5030237;28;20052;-86
2024/02/13 05:50:19;;;;;;;2.60;1.58;;;9.10;99.90;;;;;;5025945;28;20032;-87
2024/02/13 05:52:47;;;;;;;6.38;1.48;;;9.10;99.90;;;;;;5032940;28;20104;-86
2024/02/13 05:55:13;;;;;;;7.82;2.10;;;9.10;99.90;;;;;;5029711;28;20028;-85
2024/02/13 05:57:41;;;;;;;4.05;1.88;;;9.10;99.90;;;;;;5023794;28;20032;-86
2024/02/13 06:00:09;;;;;;;5.47;1.92;;;9.00;99.90;;;;;;5027781;28;20514;-86
2024/02/13 06:02:35;;;;;;;3.30;1.65;;;9.10;99.90;;;;;;5028674;28;20545;-87
2024/02/13 06:05:01;;;;;;;4.13;1.52;;;9.10;99.90;;;;;;5022725;28;20107;-85
2024/02/13 06:07:27;;;;;;;4.43;1.40;;;9.10;99.90;;;;;;5032871;28;20159;-86
2024/02/13 06:09:53;;;;;;;5.97;1.80;;;9.10;99.90;;;;;;5041936;28;20025;-86
2024/02/13 06:12:18;;;;;;;3.47;1.90;;;9.10;99.90;;;;;;5027215;28;20022;-86
2024/02/13 06:14:44;;;;;;;3.10;1.75;;;9.10;99.90;;;;;;5024788;28;20539;-86
2024/02/13 06:17:09;;;;;;;5.10;2.15;;;9.10;99.90;;;;;;5026762;28;20088;-86
2024/02/13 06:19:35;;;;;;;6.60;2.00;;;9.10;99.90;;;;;;5026891;28;20428;-86
2024/02/13 06:22:00;;;;;;;6.75;1.83;;;9.10;99.90;;;;;;5023296;28;20071;-86
2024/02/13 06:24:26;;;;;;;6.72;1.85;;;9.10;99.90;;;;;;5025000;28;20056;-86
2024/02/13 06:26:52;;;;;;;3.58;1.67;;;9.10;99.90;;;;;;5027425;28;20036;-86
2024/02/13 06:29:17;;;;;;;3.80;1.70;;;9.10;99.90;;;;;;5034752;28;20025;-86
2024/02/13 06:31:43;;;;;;;5.10;1.55;;;9.00;99.90;;;;;;5028790;28;20025;-86
2024/02/13 06:34:08;;;;;;;8.98;2.03;;;9.10;99.90;;;;;;5028717;28;21187;-87
2024/02/13 06:36:34;;;;;;;7.00;1.90;;;9.10;99.90;;;;;;5020938;28;20484;-86
2024/02/13 06:38:59;;;;;;;4.18;1.65;;;9.00;99.90;;;;;;5021053;28;20018;-86
2024/02/13 06:41:25;;;;;;;5.05;1.80;;;9.00;99.90;;;;;;5033303;28;20163;-86
2024/02/13 06:43:51;;;;;;;2.38;1.75;;;9.00;99.90;;;;;;5035437;28;20377;-86
2024/02/13 06:46:16;;;;;;;5.47;1.80;;;9.00;99.90;;;;;;5034892;28;20033;-86
2024/02/13 06:48:44;;;;;;;6.22;1.73;;;9.10;99.90;;;;;;5038201;28;20040;-86
2024/02/13 06:51:12;;;;;;;2.65;1.45;;;9.00;99.90;;;;;;5044127;28;20037;-86
2024/02/13 06:53:38;;;;;;;5.15;2.40;;;9.00;99.90;;;;;;5027457;28;20025;-85
2024/02/13 06:56:04;;;;;;;6.45;2.20;;;9.00;99.90;;;;;;5026795;28;20025;-86
2024/02/13 06:58:30;;;;;;;6.80;2.00;;;9.00;99.90;;;;;;5030829;28;20019;-85
2024/02/13 07:00:55;;;;;;;3.10;1.88;;;9.00;99.90;;;;;;5039185;28;20498;-86
2024/02/13 07:03:21;;;;;;;2.90;1.90;;;9.00;99.90;;;;;;5035774;28;20455;-86
2024/02/13 07:05:47;;;;;;;6.50;1.83;;;9.00;99.90;;;;;;5028214;28;20053;-85
2024/02/13 07:08:13;;;;;;;6.88;2.28;;;9.00;99.90;;;;;;5029218;28;20033;-86
2024/02/13 07:10:39;;;;;;;5.80;2.67;;;9.00;99.90;;;;;;5034861;28;20017;-86
2024/02/13 07:13:04;;;;;;;4.93;2.20;;;9.00;99.90;;;;;;5032806;28;20033;-86
2024/02/13 07:15:30;;;;;;;5.03;2.03;;;9.00;99.90;;;;;;5032325;28;20022;-87
2024/02/13 07:17:56;;;;;;;4.82;2.30;;;9.00;99.90;;;;;;5034235;28;20017;-86
2024/02/13 07:20:22;;;;;;;3.22;2.30;;;9.00;99.90;;;;;;5029657;28;20022;-86
2024/02/13 07:22:48;;;;;;;9.48;2.55;;;9.10;99.90;;;;;;5032958;28;20026;-87
2024/02/13 07:25:14;;;;;;;4.78;2.33;;;9.10;99.90;;;;;;5030970;28;20064;-86
2024/02/13 07:27:40;;;;;;;6.88;2.67;;;9.10;99.90;;;;;;5027425;28;20022;-86
2024/02/13 07:30:07;;;;;;;3.00;2.22;;;9.10;99.90;;;;;;5040720;28;20383;-86
2024/02/13 07:32:33;;;;;;;6.10;2.78;;;9.10;99.90;;;;;;5038304;28;20112;-86
2024/02/13 07:35:03;;;;;;;10.18;2.60;;;9.10;99.90;;;;;;5036608;28;20021;-86
2024/02/13 07:37:28;;;;;;;2.67;1.88;;;9.10;99.90;;;;;;5034785;28;20021;-87
2024/02/13 07:39:54;;;;;;;8.50;2.42;;;9.10;99.90;;;;;;5032757;28;20411;-87
2024/02/13 07:42:20;;;;;;;3.78;1.85;;;9.10;99.90;;;;;;5034038;28;20025;-86
2024/02/13 07:44:45;;;;;;;3.28;2.08;;;9.10;99.90;;;;;;5026021;28;20026;-86
2024/02/13 07:47:13;;;;;;;7.32;2.28;;;9.10;99.90;;;;;;5031965;28;20399;-86
2024/02/13 07:49:39;;;;;;;12.32;2.20;;;9.10;99.90;;;;;;5035819;28;20030;-86
2024/02/13 07:52:05;;;;;;;6.22;2.25;;;9.20;99.90;;;;;;5028138;28;20387;-88
2024/02/13 07:54:31;;;;;;;9.15;2.53;;;9.20;99.90;;;;;;5028016;28;20111;-88
2024/02/13 07:56:58;;;;;;;5.05;2.00;;;9.20;99.90;;;;;;5038348;28;20040;-89
2024/02/13 07:59:24;;;;;;;5.45;2.40;;;9.20;99.90;;;;;;5036069;28;20025;-88
2024/02/13 08:01:49;;;;;;;6.97;2.28;;;9.20;99.90;;;;;;5033461;28;20037;-88
2024/02/13 08:04:15;;;;;;;4.72;2.05;;;9.20;99.90;;;;;;5024902;28;20033;-87
2024/02/13 08:06:41;;;;;;;3.38;2.10;;;9.20;99.90;;;;;;5024377;28;20075;-87
2024/02/13 08:09:07;;;;;;;3.80;2.33;;;9.30;99.90;;;;;;5026917;28;20049;-86
2024/02/13 08:11:33;;;;;;;4.97;2.25;;;9.30;99.90;;;;;;5033404;28;20449;-86
2024/02/13 08:13:58;;;;;;;3.65;1.98;;;9.30;99.90;;;;;;5032696;28;20025;-85
2024/02/13 08:16:24;;;;;;;10.65;2.63;;;9.30;99.90;;;;;;5034913;28;20025;-86
2024/02/13 08:18:50;;;;;;;7.70;2.35;;;9.30;99.90;;;;;;5031739;28;20028;-87
2024/02/13 08:21:16;;;;;;;6.47;2.35;;;9.30;99.90;;;;;;5028382;28;20033;-86
2024/02/13 08:23:42;;;;;;;4.07;1.92;;;9.30;99.90;;;;;;5022214;28;20506;-85
2024/02/13 08:26:08;;;;;;;4.80;2.38;;;9.30;99.90;;;;;;5032735;28;20025;-86
2024/02/13 08:28:34;;;;;;;5.63;1.73;;;9.40;99.90;;;;;;5033515;28;20053;-86
2024/02/13 08:30:59;;;;;;;7.70;2.28;;;9.40;99.90;;;;;;5031570;28;20021;-85
2024/02/13 08:33:25;;;;;;;8.85;2.33;;;9.40;99.90;;;;;;5034505;28;20039;-87
2024/02/13 08:35:54;;;;;;;11.43;2.42;;;9.40;99.90;;;;;;5049080;28;20116;-86
2024/02/13 08:38:20;;;;;;;6.38;2.30;;;9.50;99.90;;;;;;5033423;28;20101;-87
2024/02/13 08:40:46;;;;;;;3.85;1.85;;;9.50;99.90;;;;;;5035381;28;20064;-85
2024/02/13 08:43:12;;;;;;;8.27;1.92;;;9.50;99.90;;;;;;5035251;28;20056;-86
2024/02/13 08:45:37;;;;;;;4.68;2.17;;;9.60;99.90;;;;;;5031421;28;20034;-86
2024/02/13 08:48:04;;;;;;;7.93;2.42;;;9.70;99.90;;;;;;5033002;28;20544;-86
2024/02/13 08:50:31;;;;;;;10.45;2.10;;;9.80;99.90;;;;;;5047199;28;20031;-86
2024/02/13 08:52:57;;;;;;;5.35;1.70;;;9.90;99.90;;;;;;5016094;28;20087;-86
2024/02/13 08:55:23;;;;;;;8.15;2.75;;;10.00;99.90;;;;;;5034660;28;20033;-86
2024/02/13 08:57:48;;;;;;;8.88;2.65;;;10.20;99.90;;;;;;5032651;28;20084;-86
2024/02/13 09:00:15;;;;;;;9.18;1.98;;;10.30;99.90;;;;;;5037040;28;20036;-87
2024/02/13 09:02:42;;;;;;;6.03;2.15;;;10.40;99.90;;;;;;5039242;28;20053;-86
2024/02/13 09:05:07;;;;;;;7.10;2.30;;;10.50;99.90;;;;;;5034830;28;20029;-86
2024/02/13 09:07:33;;;;;;;7.03;1.88;;;10.50;99.90;;;;;;5030522;28;20471;-86
2024/02/13 09:09:58;;;;;;;7.85;2.35;;;10.60;99.90;;;;;;5032169;28;20692;-86
2024/02/13 09:12:25;;;;;;;9.27;1.80;;;10.70;99.90;;;;;;5027740;28;20036;-86
2024/02/13 09:14:50;;;;;;;7.43;2.10;;;10.70;99.90;;;;;;5030649;28;20033;-87
2024/02/13 09:17:16;;;;;;;3.17;1.60;;;10.80;99.90;;;;;;5031327;28;20021;-85
2024/02/13 09:19:43;;;;;;;4.00;1.90;;;10.90;99.90;;;;;;5033253;28;20044;-85
2024/02/13 09:22:09;;;;;;;4.43;1.98;;;11.00;99.90;;;;;;5017331;28;20037;-85
2024/02/13 09:24:36;;;;;;;9.13;2.00;;;11.00;99.90;;;;;;5038821;28;20025;-87
2024/02/13 09:27:03;;;;;;;4.10;1.98;;;11.10;99.90;;;;;;5024423;28;20399;-86
2024/02/13 09:29:29;;;;;;;8.25;1.92;;;11.10;99.90;;;;;;5030181;28;20574;-86
2024/02/13 09:31:54;;;;;;;6.75;1.85;;;11.20;99.90;;;;;;5024308;28;20108;-86
2024/02/13 09:34:20;;;;;;;5.47;1.77;;;11.30;99.90;;;;;;5035600;28;20041;-87
2024/02/13 09:36:45;;;;;;;7.63;1.67;;;11.40;99.90;;;;;;5029700;28;20026;-87
2024/02/13 09:39:12;;;;;;;8.60;1.77;;;11.50;99.90;;;;;;5030372;28;20103;-87
2024/02/13 09:41:41;;;;;;;3.70;2.08;;;11.60;99.90;;;;;;5041215;28;20030;-85
2024/02/13 09:44:08;;;;;;;2.83;1.75;;;11.60;99.90;;;;;;5041872;28;20458;-86
2024/02/13 09:46:38;;;;;;;5.55;1.70;;;11.80;99.90;;;;;;5031404;28;20103;-87
2024/02/13 09:49:07;;;;;;;2.55;2.00;;;11.80;99.90;;;;;;5028403;28;20112;-86
2024/02/13 09:51:33;;;;;;;3.63;1.60;;;11.90;99.90;;;;;;5027253;28;20029;-86
2024/02/13 09:54:05;;;;;;;10.57;2.17;;;11.90;99.90;;;;;;5033895;28;20063;-87
2024/02/13 09:56:32;;;;;;;4.05;1.90;;;12.00;99.90;;;;;;5032696;28;20479;-86
2024/02/13 09:58:59;;;;;;;6.32;1.42;;;12.00;99.90;;;;;;5027186;28;20025;-86
2024/02/13 10:01:25;;;;;;;10.10;1.73;;;12.10;99.90;;;;;;5026305;28;20553;-86
2024/02/13 10:03:52;;;;;;;9.13;1.75;;;12.10;99.90;;;;;;5034561;28;20033;-87
2024/02/13 10:06:17;;;;;;;4.78;1.70;;;12.20;99.90;;;;;;5025028;28;20037;-87
2024/02/13 10:08:49;;;;;;;3.92;1.60;;;12.30;99.90;;;;;;5035204;28;20082;-86
2024/02/13 10:11:16;;;;;;;5.35;1.75;;;12.30;99.90;;;;;;5030527;28;20026;-87
2024/02/13 10:13:42;;;;;;;6.38;1.90;;;12.40;99.90;;;;;;5031002;28;20024;-87
2024/02/13 10:16:26;;;;;;;5.50;1.85;;;12.40;99.90;;;;;;5021564;28;20407;-87
2024/02/13 10:19:02;;;;;;;6.05;1.52;;;12.40;99.90;;;;;;5036598;28;20109;-87
2024/02/13 10:21:29;;;;;;;4.70;2.00;;;12.50;99.90;;;;;;5033085;28;20029;-87
2024/02/13 10:24:15;;;;;;;3.15;1.30;;;12.60;99.90;;;;;;5034006;28;20566;-86
2024/02/13 10:26:41;;;;;;;5.03;1.38;;;12.60;99.90;;;;;;5029755;28;20017;-87
2024/02/13 10:29:07;;;;;;;3.47;1.50;;;12.50;99.90;;;;;;5026739;28;20022;-87
2024/02/13 10:31:36;;;;;;;3.78;1.48;;;12.40;99.90;;;;;;5044758;28;20029;-87
2024/02/13 10:34:07;;;;;;;9.00;1.67;;;12.20;99.90;;;;;;5030039;28;20084;-86
2024/02/13 10:36:34;;;;;;;7.40;1.48;;;11.80;99.90;;;;;;5027358;28;20028;-87
2024/02/13 10:39:03;;;;;;;11.25;1.92;;;11.40;99.90;;;;;;5027238;28;20021;-86
2024/02/13 10:41:33;;;;;;;7.32;1.40;;;11.40;99.90;;;;;;5028259;28;20045;-86
2024/02/13 10:43:59;;;;;;;7.07;1.70;;;11.50;99.90;;;;;;5027254;28;20376;-86
2024/02/13 10:46:28;;;;;;;5.30;1.65;;;11.60;99.90;;;;;;5014371;28;20312;-87
2024/02/13 10:49:29;;;;;;;4.47;1.77;;;11.60;99.90;;;;;;5015433;28;20091;-87
2024/02/13 10:51:58;;;;;;;5.60;1.60;;;11.60;99.90;;;;;;5027586;28;20018;-87
2024/02/13 10:54:25;;;;;;;2.97;1.23;;;11.40;99.90;;;;;;5022208;28;20080;-87
2024/02/13 10:56:52;;;;;;;8.43;2.05;;;11.20;99.90;;;;;;5016614;28;20025;-87
2024/02/13 10:59:21;;;;;;;4.43;1.58;;;11.10;99.90;;;;;;5020054;28;20033;-87
2024/02/13 11:01:50;;;;;;;7.40;2.03;;;10.90;99.90;;;;;;5023889;28;20078;-87
2024/02/13 11:04:16;;;;;;;5.95;1.27;;;10.80;99.90;;;;;;5019361;28;20034;-86
2024/02/13 11:06:42;;;;;;;5.32;1.60;;;10.70;99.90;;;;;;5032641;28;20029;-87
2024/02/13 11:09:12;;;;;;;4.05;1.45;;;10.60;99.90;;;;;;5028611;28;20025;-86
2024/02/13 11:11:41;;;;;;;2.75;1.48;;;10.60;99.90;;;;;;5032116;28;20033;-86
2024/02/13 11:14:18;;;;;;;6.28;1.70;;;10.60;99.90;;;;;;5025900;28;20022;-86
2024/02/13 11:16:58;;;;;;;6.07;2.20;;;10.60;99.90;;;;;;5042599;28;20025;-86
2024/02/13 11:19:24;;;;;;;;;;;10.70;99.90;;;;;;5029584;28;20495;-86
2024/02/13 11:21:51;;;;;;;1.92;1.27;;;10.70;99.90;;;;;;5029829;28;19948;-86
2024/02/13 11:24:23;;;;;;;3.40;1.85;;;10.70;99.90;;;;;;5030558;28;20836;-85
2024/02/13 11:26:49;;;;;;;6.35;1.63;;;10.60;99.90;;;;;;5045505;28;20067;-86
2024/02/13 11:29:21;;;;;;;8.23;1.60;;;10.70;99.90;;;;;;5021993;28;20026;-86
2024/02/13 11:31:58;;;;;;;3.63;1.60;;;11.00;99.90;;;;;;5030237;28;20092;-86
2024/02/13 11:34:41;;;;;;;5.68;1.70;;;11.20;99.90;;;;;;5028737;28;20069;-87
2024/02/13 11:37:20;;;;;;;7.50;2.08;;;11.60;99.90;;;;;;5030948;28;20022;-87
2024/02/13 11:39:50;;;;;;;4.70;1.70;;;12.00;99.90;;;;;;5027935;28;20022;-87
2024/02/13 11:42:18;;;;;;;7.10;2.15;;;12.00;99.90;;;;;;5025950;28;20030;-87
2024/02/13 11:44:44;;;;;;;5.20;2.10;;;11.90;99.90;;;;;;5027755;28;20037;-86
2024/02/13 11:47:10;;;;;;;5.05;1.77;;;11.90;99.90;;;;;;5024481;28;20112;-86
2024/02/13 11:49:36;;;;;;;6.00;1.98;;;11.90;99.90;;;;;;5030012;28;20487;-86
2024/02/13 11:52:02;;;;;;;6.63;1.70;;;11.70;99.90;;;;;;5036057;28;20021;-86
2024/02/13 11:54:32;;;;;;;6.53;1.73;;;11.70;99.90;;;;;;5033713;28;20435;-87
2024/02/13 11:56:58;;;;;;;3.70;1.50;;;11.60;99.90;;;;;;5036242;28;20387;-87
2024/02/13 11:59:24;;;;;;;4.72;2.35;;;11.60;99.90;;;;;;5033265;28;20107;-86
2024/02/13 12:01:52;;;;;;;3.15;1.55;;;11.90;99.90;;;;;;5021457;28;20057;-87
2024/02/13 12:04:19;;;;;;;4.53;2.03;;;12.20;99.90;;;;;;5032283;28;20025;-86
2024/02/13 12:06:45;;;;;;;3.17;2.10;;;12.30;99.90;;;;;;5027484;28;20025;-88
2024/02/13 12:09:15;;;;;;;1.80;1.05;;;12.30;99.90;;;;;;5043748;28;20029;-86
2024/02/13 12:11:41;;;;;;;1.92;1.27;;;12.30;99.90;;;;;;5024349;28;20041;-87
2024/02/13 12:14:07;;;;;;;7.25;2.25;;;12.00;99.90;;;;;;5029231;28;20498;-87
2024/02/13 12:16:33;;;;;;;4.50;1.33;;;11.60;99.90;;;;;;5024187;28;20033;-86
2024/02/13 12:18:59;;;;;;;1.42;1.00;;;11.30;99.90;;;;;;5031199;28;20111;-85
2024/02/13 12:21:26;;;;;;;2.58;1.20;;;11.10;99.90;;;;;;5025723;28;20026;-86
2024/02/13 12:23:53;;;;;;;3.47;1.20;;;11.00;99.90;;;;;;5030677;28;20033;-87
2024/02/13 12:26:19;;;;;;;6.25;1.60;;;11.10;99.90;;;;;;5031275;28;20025;-87
2024/02/13 12:28:59;;;;;;;2.10;1.13;;;11.30;99.90;;;;;;5024657;28;20039;-87
2024/02/13 12:31:29;;;;;;;2.08;1.05;;;11.30;99.90;;;;;;5027755;28;20079;-86
2024/02/13 12:34:02;;;;;;;3.83;1.08;;;11.40;99.90;;;;;;5026569;28;20101;-90
2024/02/13 12:36:29;;;;;;;1.88;1.13;;;11.40;99.90;;;;;;5045461;28;20096;-87
2024/02/13 12:39:01;;;;;;;2.97;1.30;;;11.50;99.90;;;;;;5031300;28;20014;-87
2024/02/13 12:41:29;;;;;;;2.92;1.20;;;11.50;99.90;;;;;;5028032;28;20017;-87
2024/02/13 12:43:56;;;;;;;1.90;1.00;;;11.40;99.90;;;;;;5020704;28;20464;-88
2024/02/13 12:46:22;;;;;;;3.20;1.10;;;11.40;99.90;;;;;;5020674;28;20027;-87
2024/02/13 12:48:49;;;;;;;4.25;1.05;;;11.30;99.90;;;;;;5032105;28;20033;-87
2024/02/13 12:51:15;;;;;;;2.25;1.77;;;11.20;99.90;;;;;;5031535;28;20041;-88
2024/02/13 12:53:42;;;;;;;4.95;1.55;;;11.10;99.90;;;;;;5025296;28;20059;-87